sensor_id;sensor_type;location;lat;lon;timestamp;pressure;altitude;pressure_sealevel;temperature;humidity
48968;BME280;46511;53.148;8.204;2023-03-30T00:01:33;100636.94;;;12.55;100.00
48968;BME280;46511;53.148;8.204;2023-03-30T00:04:04;100643.25;;;12.67;100.00
48968;BME280;46511;53.148;8.204;2023-03-30T00:06:36;100637.28;;;12.63;100.00
48968;BME280;46511;53.148;8.204;2023-03-30T00:09:09;100632.06;;;12.74;100.00
48968;BME280;46511;53.148;8.204;2023-03-30T00:11:40;100630.38;;;12.73;100.00
48968;BME280;46511;53.148;8.204;2023-03-30T00:14:13;100638.44;;;12.59;100.00
48968;BME280;46511;53.148;8.204;2023-03-30T00:16:47;100633.25;;;12.30;100.00
48968;BME280;46511;53.148;8.204;2023-03-30T00:19:19;100615.16;;;12.36;100.00
48968;BME280;46511;53.148;8.204;2023-03-30T00:21:50;100613.84;;;12.28;100.00
48968;BME280;46511;53.148;8.204;2023-03-30T00:24:21;100612.31;;;12.51;100.00
48968;BME280;46511;53.148;8.204;2023-03-30T00:26:53;100610.81;;;12.60;100.00
48968;BME280;46511;53.148;8.204;2023-03-30T00:29:24;100598.00;;;12.40;100.00
48968;BME280;46511;53.148;8.204;2023-03-30T00:31:55;100593.94;;;12.34;100.00
48968;BME280;46511;53.148;8.204;2023-03-30T00:34:27;100590.78;;;12.67;100.00
48968;BME280;46511;53.148;8.204;2023-03-30T00:36:58;100591.75;;;12.66;100.00
48968;BME280;46511;53.148;8.204;2023-03-30T00:39:30;100588.34;;;12.51;100.00
48968;BME280;46511;53.148;8.204;2023-03-30T00:42:01;100584.59;;;12.41;100.00
48968;BME280;46511;53.148;8.204;2023-03-30T00:47:42;100575.03;;;12.64;100.00
48968;BME280;46511;53.148;8.204;2023-03-30T00:50:19;100562.00;;;12.47;100.00
48968;BME280;46511;53.148;8.204;2023-03-30T00:52:53;100547.53;;;12.51;100.00
48968;BME280;46511;53.148;8.204;2023-03-30T00:55:29;100552.59;;;12.28;100.00
48968;BME280;46511;53.148;8.204;2023-03-30T00:58:02;100537.03;;;12.22;100.00
48968;BME280;46511;53.148;8.204;2023-03-30T01:00:37;100533.66;;;12.46;100.00
48968;BME280;46511;53.148;8.204;2023-03-30T01:03:12;100527.47;;;12.33;100.00
48968;BME280;46511;53.148;8.204;2023-03-30T01:05:48;100523.75;;;12.35;100.00
48968;BME280;46511;53.148;8.204;2023-03-30T01:08:22;100520.66;;;12.41;100.00
48968;BME280;46511;53.148;8.204;2023-03-30T01:10:57;100512.44;;;12.44;100.00
48968;BME280;46511;53.148;8.204;2023-03-30T01:13:32;100504.53;;;12.30;100.00
48968;BME280;46511;53.148;8.204;2023-03-30T01:27:31;100456.50;;;12.44;100.00
48968;BME280;46511;53.148;8.204;2023-03-30T01:30:21;100446.50;;;12.61;100.00
48968;BME280;46511;53.148;8.204;2023-03-30T01:44:28;100447.97;;;12.52;100.00
48968;BME280;46511;53.148;8.204;2023-03-30T01:53:00;100421.09;;;12.80;100.00
48968;BME280;46511;53.148;8.204;2023-03-30T01:58:29;100401.47;;;12.69;100.00
48968;BME280;46511;53.148;8.204;2023-03-30T02:01:06;100394.19;;;12.83;100.00
48968;BME280;46511;53.148;8.204;2023-03-30T02:03:38;100403.28;;;12.68;100.00
48968;BME280;46511;53.148;8.204;2023-03-30T02:06:17;100392.72;;;12.79;100.00
48968;BME280;46511;53.148;8.204;2023-03-30T02:08:54;100382.94;;;12.67;100.00
48968;BME280;46511;53.148;8.204;2023-03-30T02:11:30;100384.63;;;12.68;100.00
48968;BME280;46511;53.148;8.204;2023-03-30T02:14:02;100386.31;;;12.69;100.00
48968;BME280;46511;53.148;8.204;2023-03-30T02:16:39;100382.44;;;12.86;100.00
48968;BME280;46511;53.148;8.204;2023-03-30T02:19:16;100375.59;;;12.95;100.00
48968;BME280;46511;53.148;8.204;2023-03-30T02:21:49;100357.50;;;12.87;100.00
48968;BME280;46511;53.148;8.204;2023-03-30T02:24:23;100362.91;;;12.98;100.00
48968;BME280;46511;53.148;8.204;2023-03-30T02:26:58;100359.22;;;13.12;100.00
48968;BME280;46511;53.148;8.204;2023-03-30T02:29:32;100357.09;;;13.17;100.00
48968;BME280;46511;53.148;8.204;2023-03-30T02:32:08;100353.16;;;13.10;100.00
48968;BME280;46511;53.148;8.204;2023-03-30T02:34:58;100356.16;;;13.05;100.00
48968;BME280;46511;53.148;8.204;2023-03-30T02:43:14;100359.72;;;13.30;100.00
48968;BME280;46511;53.148;8.204;2023-03-30T02:45:51;100360.31;;;13.33;100.00
48968;BME280;46511;53.148;8.204;2023-03-30T02:48:50;100358.00;;;13.16;100.00
48968;BME280;46511;53.148;8.204;2023-03-30T02:58:18;100352.75;;;13.51;100.00
48968;BME280;46511;53.148;8.204;2023-03-30T03:01:02;100350.16;;;13.38;100.00
48968;BME280;46511;53.148;8.204;2023-03-30T03:03:50;100350.81;;;13.53;100.00
48968;BME280;46511;53.148;8.204;2023-03-30T03:06:25;100349.69;;;13.44;100.00
48968;BME280;46511;53.148;8.204;2023-03-30T03:08:57;100348.94;;;13.42;100.00
48968;BME280;46511;53.148;8.204;2023-03-30T03:11:29;100351.63;;;13.42;100.00
48968;BME280;46511;53.148;8.204;2023-03-30T03:14:00;100352.44;;;13.32;100.00
48968;BME280;46511;53.148;8.204;2023-03-30T03:16:32;100340.13;;;13.53;100.00
48968;BME280;46511;53.148;8.204;2023-03-30T03:19:03;100329.84;;;13.60;100.00
48968;BME280;46511;53.148;8.204;2023-03-30T03:21:34;100329.88;;;13.82;100.00
48968;BME280;46511;53.148;8.204;2023-03-30T03:24:06;100319.91;;;13.62;100.00
48968;BME280;46511;53.148;8.204;2023-03-30T03:26:38;100319.47;;;13.79;100.00
48968;BME280;46511;53.148;8.204;2023-03-30T03:29:09;100325.97;;;13.64;100.00
48968;BME280;46511;53.148;8.204;2023-03-30T03:31:40;100314.13;;;13.79;100.00
48968;BME280;46511;53.148;8.204;2023-03-30T03:34:12;100305.59;;;13.63;100.00
48968;BME280;46511;53.148;8.204;2023-03-30T03:36:43;100293.97;;;13.75;100.00
48968;BME280;46511;53.148;8.204;2023-03-30T03:39:14;100296.88;;;13.72;100.00
48968;BME280;46511;53.148;8.204;2023-03-30T03:41:46;100313.38;;;13.66;100.00
48968;BME280;46511;53.148;8.204;2023-03-30T03:44:17;100309.66;;;13.44;100.00
48968;BME280;46511;53.148;8.204;2023-03-30T03:46:48;100301.94;;;13.53;100.00
48968;BME280;46511;53.148;8.204;2023-03-30T03:49:19;100292.50;;;13.60;100.00
48968;BME280;46511;53.148;8.204;2023-03-30T03:51:51;100293.47;;;13.59;100.00
48968;BME280;46511;53.148;8.204;2023-03-30T03:54:23;100288.38;;;13.67;100.00
48968;BME280;46511;53.148;8.204;2023-03-30T03:56:55;100287.44;;;13.90;100.00
48968;BME280;46511;53.148;8.204;2023-03-30T03:59:26;100280.78;;;13.85;100.00
48968;BME280;46511;53.148;8.204;2023-03-30T04:01:58;100276.53;;;14.05;100.00
48968;BME280;46511;53.148;8.204;2023-03-30T04:04:29;100276.25;;;14.19;100.00
48968;BME280;46511;53.148;8.204;2023-03-30T04:07:01;100274.31;;;14.10;100.00
48968;BME280;46511;53.148;8.204;2023-03-30T04:09:32;100269.84;;;13.99;100.00
48968;BME280;46511;53.148;8.204;2023-03-30T04:12:03;100271.91;;;14.18;100.00
48968;BME280;46511;53.148;8.204;2023-03-30T04:14:35;100272.97;;;14.26;100.00
48968;BME280;46511;53.148;8.204;2023-03-30T04:17:06;100271.19;;;14.05;100.00
48968;BME280;46511;53.148;8.204;2023-03-30T04:19:37;100266.78;;;14.37;100.00
48968;BME280;46511;53.148;8.204;2023-03-30T04:22:08;100267.53;;;14.06;100.00
48968;BME280;46511;53.148;8.204;2023-03-30T04:24:43;100267.78;;;14.25;100.00
48968;BME280;46511;53.148;8.204;2023-03-30T04:27:15;100265.72;;;14.17;100.00
48968;BME280;46511;53.148;8.204;2023-03-30T04:29:46;100265.34;;;14.11;100.00
48968;BME280;46511;53.148;8.204;2023-03-30T04:32:18;100269.47;;;14.26;100.00
48968;BME280;46511;53.148;8.204;2023-03-30T04:34:50;100265.84;;;14.05;100.00
48968;BME280;46511;53.148;8.204;2023-03-30T04:37:24;100266.94;;;14.13;100.00
48968;BME280;46511;53.148;8.204;2023-03-30T04:40:00;100255.00;;;14.28;100.00
48968;BME280;46511;53.148;8.204;2023-03-30T04:42:37;100261.44;;;14.37;100.00
48968;BME280;46511;53.148;8.204;2023-03-30T04:45:08;100254.13;;;14.39;100.00
48968;BME280;46511;53.148;8.204;2023-03-30T04:47:40;100256.09;;;14.48;100.00
48968;BME280;46511;53.148;8.204;2023-03-30T04:50:12;100256.81;;;14.28;100.00
48968;BME280;46511;53.148;8.204;2023-03-30T04:52:44;100257.34;;;14.22;100.00
48968;BME280;46511;53.148;8.204;2023-03-30T04:55:15;100248.34;;;14.45;100.00
48968;BME280;46511;53.148;8.204;2023-03-30T04:57:47;100260.47;;;14.49;100.00
48968;BME280;46511;53.148;8.204;2023-03-30T05:00:18;100259.50;;;14.50;100.00
48968;BME280;46511;53.148;8.204;2023-03-30T05:02:50;100259.72;;;14.58;100.00
48968;BME280;46511;53.148;8.204;2023-03-30T05:05:21;100264.31;;;14.68;100.00
48968;BME280;46511;53.148;8.204;2023-03-30T05:07:52;100259.94;;;14.67;100.00
48968;BME280;46511;53.148;8.204;2023-03-30T05:10:23;100265.91;;;14.70;100.00
48968;BME280;46511;53.148;8.204;2023-03-30T05:12:55;100268.72;;;14.69;100.00
48968;BME280;46511;53.148;8.204;2023-03-30T05:15:26;100258.91;;;14.90;100.00
48968;BME280;46511;53.148;8.204;2023-03-30T05:17:58;100239.97;;;14.82;100.00
48968;BME280;46511;53.148;8.204;2023-03-30T05:20:29;100241.72;;;14.72;100.00
48968;BME280;46511;53.148;8.204;2023-03-30T05:23:01;100240.94;;;14.81;100.00
48968;BME280;46511;53.148;8.204;2023-03-30T05:25:32;100233.06;;;14.79;100.00
48968;BME280;46511;53.148;8.204;2023-03-30T05:28:04;100231.91;;;14.93;100.00
48968;BME280;46511;53.148;8.204;2023-03-30T05:30:35;100220.06;;;14.75;100.00
48968;BME280;46511;53.148;8.204;2023-03-30T05:33:06;100222.47;;;14.78;100.00
48968;BME280;46511;53.148;8.204;2023-03-30T05:35:39;100229.53;;;14.79;100.00
48968;BME280;46511;53.148;8.204;2023-03-30T05:38:11;100223.16;;;14.91;100.00
48968;BME280;46511;53.148;8.204;2023-03-30T05:40:42;100219.88;;;14.88;100.00
48968;BME280;46511;53.148;8.204;2023-03-30T05:43:14;100221.31;;;14.71;100.00
48968;BME280;46511;53.148;8.204;2023-03-30T05:45:46;100222.81;;;14.84;100.00
48968;BME280;46511;53.148;8.204;2023-03-30T05:48:18;100222.75;;;14.96;100.00
48968;BME280;46511;53.148;8.204;2023-03-30T05:50:49;100222.13;;;15.03;100.00
48968;BME280;46511;53.148;8.204;2023-03-30T05:53:21;100215.56;;;15.07;100.00
48968;BME280;46511;53.148;8.204;2023-03-30T05:55:52;100228.50;;;14.91;100.00
48968;BME280;46511;53.148;8.204;2023-03-30T05:58:23;100221.69;;;14.87;100.00
48968;BME280;46511;53.148;8.204;2023-03-30T06:00:57;100231.91;;;14.61;100.00
48968;BME280;46511;53.148;8.204;2023-03-30T06:03:29;100238.38;;;15.11;100.00
48968;BME280;46511;53.148;8.204;2023-03-30T06:06:00;100231.72;;;15.06;100.00
48968;BME280;46511;53.148;8.204;2023-03-30T06:08:31;100225.06;;;15.42;100.00
48968;BME280;46511;53.148;8.204;2023-03-30T06:11:03;100221.41;;;15.43;100.00
48968;BME280;46511;53.148;8.204;2023-03-30T06:13:34;100232.47;;;14.97;100.00
48968;BME280;46511;53.148;8.204;2023-03-30T06:16:06;100228.66;;;15.10;100.00
48968;BME280;46511;53.148;8.204;2023-03-30T06:18:38;100217.41;;;15.58;100.00
48968;BME280;46511;53.148;8.204;2023-03-30T06:21:09;100225.59;;;15.36;100.00
48968;BME280;46511;53.148;8.204;2023-03-30T06:23:41;100228.25;;;14.94;100.00
48968;BME280;46511;53.148;8.204;2023-03-30T06:26:12;100229.69;;;14.98;100.00
48968;BME280;46511;53.148;8.204;2023-03-30T06:28:44;100230.34;;;15.11;100.00
48968;BME280;46511;53.148;8.204;2023-03-30T06:31:15;100238.00;;;14.84;100.00
48968;BME280;46511;53.148;8.204;2023-03-30T06:33:47;100230.34;;;15.11;100.00
48968;BME280;46511;53.148;8.204;2023-03-30T06:36:20;100228.94;;;15.07;100.00
48968;BME280;46511;53.148;8.204;2023-03-30T06:38:51;100218.72;;;15.43;100.00
48968;BME280;46511;53.148;8.204;2023-03-30T06:41:22;100225.22;;;15.20;100.00
48968;BME280;46511;53.148;8.204;2023-03-30T06:43:54;100228.72;;;15.41;100.00
48968;BME280;46511;53.148;8.204;2023-03-30T06:46:25;100225.13;;;15.31;100.00
48968;BME280;46511;53.148;8.204;2023-03-30T06:48:57;100222.78;;;15.58;100.00
48968;BME280;46511;53.148;8.204;2023-03-30T06:51:28;100228.41;;;15.55;100.00
48968;BME280;46511;53.148;8.204;2023-03-30T06:53:59;100211.88;;;15.71;100.00
48968;BME280;46511;53.148;8.204;2023-03-30T06:56:31;100216.97;;;15.74;100.00
48968;BME280;46511;53.148;8.204;2023-03-30T06:59:02;100226.38;;;15.99;100.00
48968;BME280;46511;53.148;8.204;2023-03-30T07:01:35;100220.72;;;16.33;100.00
48968;BME280;46511;53.148;8.204;2023-03-30T07:04:07;100219.88;;;16.42;100.00
48968;BME280;46511;53.148;8.204;2023-03-30T07:06:38;100220.88;;;16.41;100.00
48968;BME280;46511;53.148;8.204;2023-03-30T07:09:10;100212.03;;;16.19;100.00
48968;BME280;46511;53.148;8.204;2023-03-30T07:11:42;100210.94;;;16.22;100.00
48968;BME280;46511;53.148;8.204;2023-03-30T07:14:14;100217.75;;;16.36;100.00
48968;BME280;46511;53.148;8.204;2023-03-30T07:16:45;100222.56;;;15.71;100.00
48968;BME280;46511;53.148;8.204;2023-03-30T07:19:18;100217.56;;;16.18;100.00
48968;BME280;46511;53.148;8.204;2023-03-30T07:21:49;100226.19;;;16.21;100.00
48968;BME280;46511;53.148;8.204;2023-03-30T07:24:21;100219.06;;;16.11;100.00
48968;BME280;46511;53.148;8.204;2023-03-30T07:26:52;100216.47;;;16.30;100.00
48968;BME280;46511;53.148;8.204;2023-03-30T07:29:23;100220.94;;;16.70;100.00
48968;BME280;46511;53.148;8.204;2023-03-30T07:31:55;100209.59;;;16.66;100.00
48968;BME280;46511;53.148;8.204;2023-03-30T07:34:26;100215.00;;;16.76;100.00
48968;BME280;46511;53.148;8.204;2023-03-30T07:36:58;100212.81;;;18.04;100.00
48968;BME280;46511;53.148;8.204;2023-03-30T07:39:29;100206.41;;;17.77;100.00
48968;BME280;46511;53.148;8.204;2023-03-30T07:42:01;100202.69;;;17.88;100.00
48968;BME280;46511;53.148;8.204;2023-03-30T07:44:32;100211.50;;;17.70;100.00
48968;BME280;46511;53.148;8.204;2023-03-30T07:47:04;100215.53;;;16.60;100.00
48968;BME280;46511;53.148;8.204;2023-03-30T07:49:36;100225.72;;;16.85;100.00
48968;BME280;46511;53.148;8.204;2023-03-30T07:52:08;100223.50;;;17.00;100.00
48968;BME280;46511;53.148;8.204;2023-03-30T07:54:39;100228.50;;;16.55;100.00
48968;BME280;46511;53.148;8.204;2023-03-30T07:57:13;100221.88;;;16.09;100.00
48968;BME280;46511;53.148;8.204;2023-03-30T07:59:44;100228.31;;;16.97;100.00
48968;BME280;46511;53.148;8.204;2023-03-30T08:02:16;100223.13;;;17.52;100.00
48968;BME280;46511;53.148;8.204;2023-03-30T08:04:47;100243.03;;;17.59;100.00
48968;BME280;46511;53.148;8.204;2023-03-30T08:07:19;100229.31;;;17.72;100.00
48968;BME280;46511;53.148;8.204;2023-03-30T08:09:50;100233.28;;;18.60;100.00
48968;BME280;46511;53.148;8.204;2023-03-30T08:12:21;100240.13;;;17.04;100.00
48968;BME280;46511;53.148;8.204;2023-03-30T08:14:53;100232.84;;;16.37;100.00
48968;BME280;46511;53.148;8.204;2023-03-30T08:17:25;100240.72;;;16.28;100.00
48968;BME280;46511;53.148;8.204;2023-03-30T08:19:57;100252.97;;;16.21;100.00
48968;BME280;46511;53.148;8.204;2023-03-30T08:22:28;100262.63;;;16.43;100.00
48968;BME280;46511;53.148;8.204;2023-03-30T08:24:59;100244.56;;;16.45;100.00
48968;BME280;46511;53.148;8.204;2023-03-30T08:27:31;100253.63;;;16.54;100.00
48968;BME280;46511;53.148;8.204;2023-03-30T08:30:03;100240.13;;;17.04;100.00
48968;BME280;46511;53.148;8.204;2023-03-30T08:32:34;100227.91;;;17.58;100.00
48968;BME280;46511;53.148;8.204;2023-03-30T08:35:06;100247.19;;;19.00;100.00
48968;BME280;46511;53.148;8.204;2023-03-30T08:37:38;100240.88;;;19.09;100.00
48968;BME280;46511;53.148;8.204;2023-03-30T08:40:10;100231.34;;;20.61;100.00
48968;BME280;46511;53.148;8.204;2023-03-30T08:43:01;100228.03;;;21.08;99.60
48968;BME280;46511;53.148;8.204;2023-03-30T08:45:55;100226.41;;;24.39;73.76
48968;BME280;46511;53.148;8.204;2023-03-30T08:48:32;100219.09;;;24.75;63.46
48968;BME280;46511;53.148;8.204;2023-03-30T08:51:11;100229.59;;;22.07;79.00
48968;BME280;46511;53.148;8.204;2023-03-30T08:53:54;100227.38;;;21.47;85.99
48968;BME280;46511;53.148;8.204;2023-03-30T08:57:14;100222.63;;;19.91;96.28
48968;BME280;46511;53.148;8.204;2023-03-30T08:59:38;100228.47;;;19.17;100.00
48968;BME280;46511;53.148;8.204;2023-03-30T09:02:17;100227.81;;;18.51;100.00
48968;BME280;46511;53.148;8.204;2023-03-30T09:04:58;100239.69;;;18.04;100.00
48968;BME280;46511;53.148;8.204;2023-03-30T09:07:40;100239.03;;;16.97;100.00
48968;BME280;46511;53.148;8.204;2023-03-30T09:10:27;100241.81;;;16.16;100.00
48968;BME280;46511;53.148;8.204;2023-03-30T09:13:06;100249.69;;;15.78;100.00
48968;BME280;46511;53.148;8.204;2023-03-30T09:15:48;100264.34;;;16.04;100.00
48968;BME280;46511;53.148;8.204;2023-03-30T09:18:46;100261.75;;;15.51;100.00
48968;BME280;46511;53.148;8.204;2023-03-30T09:21:26;100255.13;;;16.37;100.00
48968;BME280;46511;53.148;8.204;2023-03-30T09:24:00;100265.06;;;16.66;100.00
48968;BME280;46511;53.148;8.204;2023-03-30T09:26:47;100250.41;;;16.60;100.00
48968;BME280;46511;53.148;8.204;2023-03-30T09:29:25;100258.53;;;16.99;100.00
48968;BME280;46511;53.148;8.204;2023-03-30T09:32:11;100251.56;;;17.45;100.00
48968;BME280;46511;53.148;8.204;2023-03-30T09:35:04;100259.44;;;17.65;100.00
48968;BME280;46511;53.148;8.204;2023-03-30T09:37:45;100256.03;;;18.20;100.00
48968;BME280;46511;53.148;8.204;2023-03-30T09:42:57;100255.94;;;17.46;100.00
48968;BME280;46511;53.148;8.204;2023-03-30T09:45:31;100260.63;;;16.95;100.00
48968;BME280;46511;53.148;8.204;2023-03-30T09:48:05;100255.22;;;16.16;100.00
48968;BME280;46511;53.148;8.204;2023-03-30T09:50:39;100274.28;;;16.23;100.00
48968;BME280;46511;53.148;8.204;2023-03-30T09:53:20;100262.44;;;16.25;100.00
48968;BME280;46511;53.148;8.204;2023-03-30T09:58:34;100268.00;;;17.88;100.00
48968;BME280;46511;53.148;8.204;2023-03-30T10:03:44;100264.47;;;20.88;99.54
48968;BME280;46511;53.148;8.204;2023-03-30T10:06:46;100258.41;;;23.24;80.63
48968;BME280;46511;53.148;8.204;2023-03-30T10:09:20;100265.03;;;22.67;76.22
48968;BME280;46511;53.148;8.204;2023-03-30T10:11:53;100265.50;;;21.76;84.24
48968;BME280;46511;53.148;8.204;2023-03-30T10:14:29;100261.56;;;19.71;98.01
48968;BME280;46511;53.148;8.204;2023-03-30T10:17:03;100272.72;;;18.96;100.00
48968;BME280;46511;53.148;8.204;2023-03-30T10:19:36;100297.47;;;17.61;100.00
48968;BME280;46511;53.148;8.204;2023-03-30T10:22:15;100311.44;;;14.80;100.00
48968;BME280;46511;53.148;8.204;2023-03-30T10:24:51;100321.56;;;14.32;100.00
48968;BME280;46511;53.148;8.204;2023-03-30T10:27:26;100328.97;;;13.94;100.00
48968;BME280;46511;53.148;8.204;2023-03-30T10:30:07;100329.47;;;14.55;100.00
48968;BME280;46511;53.148;8.204;2023-03-30T10:32:42;100322.63;;;15.91;100.00
48968;BME280;46511;53.148;8.204;2023-03-30T10:35:17;100324.44;;;18.63;100.00
48968;BME280;46511;53.148;8.204;2023-03-30T10:38:07;100300.78;;;19.47;100.00
48968;BME280;46511;53.148;8.204;2023-03-30T10:40:43;100314.88;;;21.70;100.00
48968;BME280;46511;53.148;8.204;2023-03-30T10:43:17;100293.91;;;21.48;100.00
48968;BME280;46511;53.148;8.204;2023-03-30T10:45:53;100296.63;;;21.56;97.59
48968;BME280;46511;53.148;8.204;2023-03-30T10:55:17;100305.19;;;24.01;76.08
48968;BME280;46511;53.148;8.204;2023-03-30T10:57:45;100286.59;;;24.93;57.42
48968;BME280;46511;53.148;8.204;2023-03-30T11:00:43;100291.91;;;21.33;79.07
48968;BME280;46511;53.148;8.204;2023-03-30T11:03:26;100293.84;;;18.91;97.36
48968;BME280;46511;53.148;8.204;2023-03-30T11:06:12;100309.00;;;18.00;100.00
48968;BME280;46511;53.148;8.204;2023-03-30T11:08:49;100313.31;;;16.96;100.00
48968;BME280;46511;53.148;8.204;2023-03-30T11:14:20;100311.31;;;19.40;100.00
48968;BME280;46511;53.148;8.204;2023-03-30T11:16:57;100295.75;;;19.70;90.35
48968;BME280;46511;53.148;8.204;2023-03-30T11:23:15;100293.97;;;20.05;90.63
48968;BME280;46511;53.148;8.204;2023-03-30T11:26:00;100289.19;;;18.11;100.00
48968;BME280;46511;53.148;8.204;2023-03-30T11:28:51;100308.47;;;17.67;100.00
48968;BME280;46511;53.148;8.204;2023-03-30T11:31:36;100293.25;;;18.15;100.00
48968;BME280;46511;53.148;8.204;2023-03-30T11:37:17;100295.84;;;18.34;100.00
48968;BME280;46511;53.148;8.204;2023-03-30T11:40:02;100292.88;;;17.90;100.00
48968;BME280;46511;53.148;8.204;2023-03-30T11:42:43;100306.81;;;17.57;100.00
48968;BME280;46511;53.148;8.204;2023-03-30T11:51:09;100324.50;;;19.44;87.62
48968;BME280;46511;53.148;8.204;2023-03-30T11:57:00;100312.81;;;20.65;64.05
48968;BME280;46511;53.148;8.204;2023-03-30T12:02:44;100322.53;;;18.08;79.40
48968;BME280;46511;53.148;8.204;2023-03-30T12:08:13;100282.06;;;21.89;61.26
48968;BME280;46511;53.148;8.204;2023-03-30T12:13:59;100327.38;;;22.90;48.84
48968;BME280;46511;53.148;8.204;2023-03-30T12:16:41;100314.09;;;22.25;49.25
48968;BME280;46511;53.148;8.204;2023-03-30T12:19:21;100321.59;;;20.67;56.34
48968;BME280;46511;53.148;8.204;2023-03-30T12:21:59;100319.13;;;19.61;64.63
48968;BME280;46511;53.148;8.204;2023-03-30T12:24:42;100321.84;;;22.36;52.69
48968;BME280;46511;53.148;8.204;2023-03-30T12:27:22;100326.28;;;22.05;54.45
48968;BME280;46511;53.148;8.204;2023-03-30T12:30:09;100317.16;;;21.16;55.65
48968;BME280;46511;53.148;8.204;2023-03-30T12:32:55;100320.91;;;20.31;61.87
48968;BME280;46511;53.148;8.204;2023-03-30T12:35:44;100319.75;;;20.67;59.16
48968;BME280;46511;53.148;8.204;2023-03-30T12:38:20;100329.53;;;18.93;70.43
48968;BME280;46511;53.148;8.204;2023-03-30T12:40:54;100325.09;;;18.10;79.33
48968;BME280;46511;53.148;8.204;2023-03-30T12:43:41;100321.22;;;17.56;86.14
48968;BME280;46511;53.148;8.204;2023-03-30T12:46:30;100334.44;;;18.06;87.00
48968;BME280;46511;53.148;8.204;2023-03-30T12:49:19;100341.56;;;18.34;83.71
48968;BME280;46511;53.148;8.204;2023-03-30T12:57:36;100342.38;;;19.62;73.87
48968;BME280;46511;53.148;8.204;2023-03-30T13:00:39;100327.25;;;20.21;69.88
48968;BME280;46511;53.148;8.204;2023-03-30T13:03:24;100315.59;;;18.80;80.26
48968;BME280;46511;53.148;8.204;2023-03-30T13:06:05;100323.38;;;18.83;82.67
48968;BME280;46511;53.148;8.204;2023-03-30T13:08:46;100337.94;;;18.16;84.62
48968;BME280;46511;53.148;8.204;2023-03-30T13:11:24;100326.09;;;18.09;85.60
48968;BME280;46511;53.148;8.204;2023-03-30T13:13:59;100313.69;;;20.39;74.75
48968;BME280;46511;53.148;8.204;2023-03-30T13:16:45;100312.25;;;19.93;71.41
48968;BME280;46511;53.148;8.204;2023-03-30T13:22:03;100317.13;;;18.82;81.65
48968;BME280;46511;53.148;8.204;2023-03-30T13:24:56;100309.69;;;18.12;87.70
48968;BME280;46511;53.148;8.204;2023-03-30T13:27:35;100304.50;;;18.01;87.86
48968;BME280;46511;53.148;8.204;2023-03-30T13:32:47;100288.63;;;21.22;67.81
48968;BME280;46511;53.148;8.204;2023-03-30T13:44:17;100296.72;;;21.05;64.47
48968;BME280;46511;53.148;8.204;2023-03-30T13:52:17;100292.75;;;20.67;56.50
48968;BME280;46511;53.148;8.204;2023-03-30T13:54:58;100309.22;;;20.48;59.96
48968;BME280;46511;53.148;8.204;2023-03-30T13:57:35;100289.84;;;20.61;57.21
48968;BME280;46511;53.148;8.204;2023-03-30T14:00:32;100310.09;;;20.57;56.33
48968;BME280;46511;53.148;8.204;2023-03-30T14:06:12;100307.63;;;18.61;76.83
48968;BME280;46511;53.148;8.204;2023-03-30T14:08:48;100321.72;;;19.53;73.32
48968;BME280;46511;53.148;8.204;2023-03-30T14:14:03;100318.72;;;20.34;67.49
48968;BME280;46511;53.148;8.204;2023-03-30T14:16:37;100302.84;;;21.89;57.92
48968;BME280;46511;53.148;8.204;2023-03-30T14:21:59;100296.03;;;22.01;54.03
48968;BME280;46511;53.148;8.204;2023-03-30T14:24:55;100299.41;;;22.98;51.16
48968;BME280;46511;53.148;8.204;2023-03-30T14:27:32;100292.50;;;21.92;54.26
48968;BME280;46511;53.148;8.204;2023-03-30T14:30:19;100292.88;;;21.73;56.35
48968;BME280;46511;53.148;8.204;2023-03-30T14:33:09;100305.34;;;21.17;58.55
48968;BME280;46511;53.148;8.204;2023-03-30T14:35:44;100315.22;;;21.43;57.14
48968;BME280;46511;53.148;8.204;2023-03-30T14:38:32;100323.97;;;21.28;56.23
48968;BME280;46511;53.148;8.204;2023-03-30T14:41:19;100315.63;;;20.47;61.37
48968;BME280;46511;53.148;8.204;2023-03-30T14:43:57;100300.50;;;20.62;56.55
48968;BME280;46511;53.148;8.204;2023-03-30T14:46:38;100300.94;;;19.89;62.45
48968;BME280;46511;53.148;8.204;2023-03-30T14:49:19;100313.63;;;19.35;67.40
48968;BME280;46511;53.148;8.204;2023-03-30T14:52:07;100321.56;;;19.19;70.82
48968;BME280;46511;53.148;8.204;2023-03-30T14:54:52;100320.34;;;18.68;73.20
48968;BME280;46511;53.148;8.204;2023-03-30T14:57:25;100314.16;;;19.21;73.63
48968;BME280;46511;53.148;8.204;2023-03-30T15:00:00;100314.00;;;18.60;76.00
48968;BME280;46511;53.148;8.204;2023-03-30T15:02:40;100316.69;;;17.85;81.80
48968;BME280;46511;53.148;8.204;2023-03-30T15:05:14;100319.88;;;18.73;81.52
48968;BME280;46511;53.148;8.204;2023-03-30T15:07:48;100308.16;;;19.81;75.50
48968;BME280;46511;53.148;8.204;2023-03-30T15:12:55;100312.66;;;20.74;65.59
48968;BME280;46511;53.148;8.204;2023-03-30T15:15:29;100327.59;;;20.18;69.72
48968;BME280;46511;53.148;8.204;2023-03-30T15:18:02;100320.47;;;18.39;79.56
48968;BME280;46511;53.148;8.204;2023-03-30T15:20:34;100332.97;;;18.31;83.09
48968;BME280;46511;53.148;8.204;2023-03-30T15:23:06;100314.75;;;18.52;82.80
48968;BME280;46511;53.148;8.204;2023-03-30T15:25:42;100322.19;;;18.31;84.27
48968;BME280;46511;53.148;8.204;2023-03-30T15:28:15;100326.81;;;18.11;85.12
48968;BME280;46511;53.148;8.204;2023-03-30T15:30:49;100321.38;;;17.54;90.94
48968;BME280;46511;53.148;8.204;2023-03-30T15:33:24;100317.13;;;17.71;90.86